If you wish to contribute or participate in the discussions about articles you are invited to join SKYbrary as a registered user

 Actions

Itaituba Airport

From SKYbrary Wiki

SBIH
Airport
ICAO: SBIH – IATA: ITB
Summary
Name Itaituba Airport
Region South America and Caribbean
Territory Brazil BR.gif
Location Itaituba, Para
Serving Itaituba
Elevation 32.918 m
108 ft32.918 m
Coordinates 4° 14' 31.99" S, 56° 0' 2.99" W
Runways
Designator Length Width Surface ROPS
5/23 1605 m5,265.748 ft
30 m98.425 ft
ASP /


METAR
Observation SBIH 241900Z 21002KT 9999 FEW012 SCT015 FEW023TCU 24/24 Q1010 RETS
Station Itaituba
Date/Time 24 May 2019 19:00:00
Wind direction 210°
Wind speed 02 kts
Lowest cloud amount few clouds
Temperature 24°C
Dew point 24°C
Humidity 100%
QNH 1010 hPa
Weather condition n/a

Itaituba Airport is the airport serving Itaituba, Brazil.

Climatology

Tropical monsoon climate (Köppen climate classification Am)

Maps

Terrain

Loading map...

Airport Layout

Loading map...


Accidents & Serious Incidents at or in vicinity of SBIH

None on SKYbrary